This is the latest recevied weather packets stored in our database for station/object AG1T-20. If no packets are shown the sender has not sent any weather packets the latest 10 day(s).
| Time | Temp. | Humidity | Pressure | Rain* | Wind** | Luminosity | Snow |
|---|---|---|---|---|---|---|---|
| 1787393405 | 23.33° C | 48% | 1024.5 hPa | 0 mm | - | 0 W/m² | - |
| 1787392805 | 23.33° C | 47% | 1024.5 hPa | 0 mm | - | 0 W/m² | - |
| 1787392205 | 23.89° C | 48% | 1024.1 hPa | 0 mm | - | 0 W/m² | - |
| 1787391605 | 23.89° C | 47% | 1024.1 hPa | 0 mm | - | 0 W/m² | - |
| 1787391005 | 22.78° C | 51% | 1024.1 hPa | 0 mm | - | 0 W/m² | - |
| 1787390404 | 22.78° C | 52% | 1024.1 hPa | 0 mm | - | 0 W/m² | - |
| 1787389804 | 22.78° C | 52% | 1024.1 hPa | 0 mm | - | 0 W/m² | - |
| 1787389204 | 23.89° C | 47% | 1024.1 hPa | 0 mm | - | 0 W/m² | - |
| 1787388604 | 25° C | 41% | 1024.9 hPa | 0 mm | - | 0 W/m² | - |
| 1787388004 | 24.44° C | 44% | 1024.9 hPa | 0 mm | - | 0 W/m² | - |
| 1787387405 | 24.44° C | 45% | 1024.9 hPa | 0 mm | - | 0 W/m² | - |
| 1787386805 | 25.56° C | 40% | 1024.9 hPa | 0 mm | - | 0 W/m² | - |
| 1787386204 | 26.11° C | 38% | 1024.9 hPa | 0 mm | - | 0 W/m² | - |
| 1787385604 | 26.11° C | 39% | 1024.9 hPa | 0 mm | - | 0 W/m² | - |
| 1787385004 | 26.11° C | 38% | 1024.3 hPa | 0 mm | - | 0 W/m² | - |
| 1787384404 | 26.67° C | 37% | 1024.3 hPa | 0 mm | - | 0 W/m² | - |
| 1787383804 | 26.67° C | 37% | 1024.3 hPa | 0 mm | - | 0 W/m² | - |
| 1787383204 | 26.67° C | 36% | 1024.3 hPa | 0 mm | - | 0 W/m² | - |
| 1787382604 | 26.67° C | 35% | 1024.3 hPa | 0 mm | - | 0 W/m² | - |
| 1787382005 | 26.11° C | 37% | 1024.3 hPa | 0 mm | - | 0 W/m² | - |
| 1787381404 | 26.67° C | 36% | 1022.9 hPa | 0 mm | - | 0 W/m² | - |
| 1787380804 | 26.67° C | 37% | 1022.9 hPa | 0 mm | - | 0 W/m² | - |
| 1787380204 | 27.78° C | 31% | 1022.9 hPa | 0 mm | - | 0 W/m² | - |
| 1787379604 | 27.78° C | 30% | 1022.9 hPa | 0 mm | - | 0 W/m² | - |
| 1787379005 | 27.22° C | 32% | 1022.9 hPa | 0 mm | - | 0 W/m² | - |
* Rain latest hour (hover to see other rain measurements)
** Current wind speed in m/s (hover to see current wind gust speed)